Time;durP1;ratioP1;P1;durP2;ratioP2;P2;SDS_P1;SDS_P2;PMS_P1;PMS_P2;Temp;Humidity;BMP_temperature;BMP_pressure;BME280_temperature;BME280_humidity;BME280_pressure;Samples;Min_cycle;Max_cycle;Signal;HPM_P1;HPM_P2
2022/03/02 08:51:19;;;;;;;20.30;15.20;;;;;;;;;;4974132;28;20215;-87
2022/03/02 10:43:38;;;;;;;;;;;;;;;;;;;;;
2022/03/02 11:08:40;;;;;;;18.83;14.93;;;;;;;;;;4774952;29;20369;-87
2022/03/02 16:31:00;;;;;;;15.67;13.57;;;;;;;;;;4951780;28;20254;-87
2022/03/02 16:37:11;;;;;;;;;;;;;;;;;;;;;
2022/03/02 17:43:01;;;;;;;21.87;14.43;;;;;;;;;;5010404;28;20264;-89
2022/03/02 17:45:32;;;;;;;17.27;15.43;;;;;;;;;;5006427;28;20214;-88
2022/03/02 17:48:02;;;;;;;17.03;14.97;;;;;;;;;;5001623;28;20242;-89
2022/03/02 17:50:31;;;;;;;15.77;13.23;;;;;;;;;;4999745;28;20206;-89
2022/03/02 17:52:59;;;;;;;16.43;13.57;;;;;;;;;;4994556;28;20297;-89
2022/03/02 17:55:30;;;;;;;17.80;14.70;;;;;;;;;;4993199;28;20245;-88
2022/03/02 17:58:02;;;;;;;17.60;13.70;;;;;;;;;;4992822;28;20230;-89
2022/03/02 18:00:41;;;;;;;17.20;15.47;;;;;;;;;;5000921;28;20207;-87
2022/03/02 18:03:10;;;;;;;17.13;14.83;;;;;;;;;;5006464;28;20269;-90
2022/03/02 18:05:39;;;;;;;16.23;13.90;;;;;;;;;;5007083;28;20203;-90
2022/03/02 18:08:10;;;;;;;19.43;15.10;;;;;;;;;;5000267;28;20222;-89
2022/03/02 18:10:38;;;;;;;17.87;14.83;;;;;;;;;;4998842;28;20211;-90
2022/03/02 18:13:12;;;;;;;19.60;15.33;;;;;;;;;;5000698;28;20213;-89
2022/03/02 18:15:42;;;;;;;21.77;15.73;;;;;;;;;;5004092;28;20207;-89
2022/03/02 18:18:16;;;;;;;15.93;13.90;;;;;;;;;;5002374;28;20219;-88
2022/03/02 18:20:46;;;;;;;17.87;14.90;;;;;;;;;;5006118;28;20202;-88
2022/03/02 18:23:13;;;;;;;17.53;14.60;;;;;;;;;;4994690;28;20271;-88
2022/03/02 18:25:41;;;;;;;18.43;16.20;;;;;;;;;;4998910;28;20286;-89
2022/03/02 18:28:10;;;;;;;20.80;16.10;;;;;;;;;;4993011;28;20231;-89
2022/03/02 18:30:37;;;;;;;21.20;16.23;;;;;;;;;;5002463;28;20700;-90
2022/03/02 18:33:07;;;;;;;19.10;14.70;;;;;;;;;;5002943;28;20205;-89
2022/03/02 18:35:36;;;;;;;19.97;15.27;;;;;;;;;;5007251;28;20210;-89
2022/03/02 18:38:05;;;;;;;18.50;15.67;;;;;;;;;;5004430;28;20315;-88
2022/03/02 18:40:34;;;;;;;23.47;16.00;;;;;;;;;;5009092;28;20207;-89
2022/03/02 18:43:02;;;;;;;17.73;14.93;;;;;;;;;;5012229;28;20207;-90
2022/03/02 18:45:31;;;;;;;23.83;20.03;;;;;;;;;;5024276;28;20199;-91
2022/03/02 18:48:01;;;;;;;20.43;16.17;;;;;;;;;;5030843;28;20223;-91
2022/03/02 18:50:29;;;;;;;25.00;17.80;;;;;;;;;;5016075;28;20211;-87
2022/03/02 18:53:09;;;;;;;29.10;22.87;;;;;;;;;;5013210;28;20210;-89
2022/03/02 18:55:59;;;;;;;22.93;17.80;;;;;;;;;;5011103;28;20293;-88
2022/03/02 18:58:35;;;;;;;34.97;26.00;;;;;;;;;;4997525;28;20226;-88
2022/03/02 19:01:11;;;;;;;42.33;31.83;;;;;;;;;;5005972;28;20211;-88
2022/03/02 19:03:41;;;;;;;22.57;18.93;;;;;;;;;;5005519;28;20286;-88
2022/03/02 19:06:14;;;;;;;29.03;20.20;;;;;;;;;;5010319;28;20298;-89
2022/03/02 19:08:49;;;;;;;38.10;26.87;;;;;;;;;;5004230;28;20225;-87
2022/03/02 19:11:21;;;;;;;41.53;30.47;;;;;;;;;;5008955;28;20202;-85
2022/03/02 19:13:49;;;;;;;49.27;36.13;;;;;;;;;;4995035;28;20211;-86
2022/03/02 19:16:25;;;;;;;43.37;28.87;;;;;;;;;;5007025;28;20245;-83
2022/03/02 19:18:54;;;;;;;28.33;23.13;;;;;;;;;;5009037;28;20241;-86
2022/03/02 19:21:49;;;;;;;26.07;21.13;;;;;;;;;;5005432;28;20210;-88
2022/03/02 19:27:20;;;;;;;23.07;17.60;;;;;;;;;;4978645;28;20230;-86
2022/03/02 19:32:55;;;;;;;0.57;0.57;;;;;;;;;;5002996;28;20196;-84
2022/03/02 19:35:37;;;;;;;32.63;25.73;;;;;;;;;;5003979;28;20203;-86
2022/03/02 19:39:55;;;;;;;29.97;24.73;;;;;;;;;;4997729;28;20226;-77
2022/03/02 19:40:53;;;;;;;33.77;25.27;;;;;;;;;;5001696;28;20276;-76
2022/03/02 19:43:20;;;;;;;31.47;25.17;;;;;;;;;;4998644;28;20206;-75
2022/03/02 19:45:48;;;;;;;38.00;26.63;;;;;;;;;;5001707;28;20207;-75
2022/03/02 19:48:18;;;;;;;39.57;27.00;;;;;;;;;;4998714;28;20218;-79
2022/03/02 19:50:46;;;;;;;40.40;27.70;;;;;;;;;;5005350;28;20210;-75
2022/03/02 19:53:16;;;;;;;38.03;28.57;;;;;;;;;;5004939;28;20253;-75
2022/03/02 19:55:47;;;;;;;45.37;28.70;;;;;;;;;;5009307;28;20199;-75
2022/03/02 19:58:14;;;;;;;42.73;29.43;;;;;;;;;;5006882;28;20230;-75
2022/03/02 20:00:45;;;;;;;44.43;31.10;;;;;;;;;;4999834;28;20252;-75
2022/03/02 20:03:12;;;;;;;44.70;30.90;;;;;;;;;;5006623;28;20226;-75
2022/03/02 20:05:41;;;;;;;44.40;29.50;;;;;;;;;;5006718;28;20253;-75
2022/03/02 20:08:08;;;;;;;43.83;31.70;;;;;;;;;;5006678;28;20273;-75
2022/03/02 20:10:35;;;;;;;49.43;31.77;;;;;;;;;;5010483;28;20199;-75
2022/03/02 20:13:03;;;;;;;46.53;31.27;;;;;;;;;;5008829;28;20207;-76
2022/03/02 20:15:30;;;;;;;48.67;31.30;;;;;;;;;;5006080;28;20214;-75
2022/03/02 20:17:58;;;;;;;45.70;31.23;;;;;;;;;;5010468;28;20264;-76
2022/03/02 20:20:25;;;;;;;52.13;32.80;;;;;;;;;;5010975;28;20288;-76
2022/03/02 20:22:53;;;;;;;45.10;32.97;;;;;;;;;;5010536;28;20302;-76
2022/03/02 20:25:21;;;;;;;47.43;33.20;;;;;;;;;;5009124;28;20246;-76
2022/03/02 20:28:01;;;;;;;45.90;32.13;;;;;;;;;;5008620;28;20230;-75
2022/03/02 20:30:29;;;;;;;45.63;31.13;;;;;;;;;;5012362;28;20198;-76
2022/03/02 20:32:57;;;;;;;44.17;30.53;;;;;;;;;;5008620;28;20215;-75
2022/03/02 20:35:24;;;;;;;61.40;37.33;;;;;;;;;;4998769;28;20208;-75
2022/03/02 20:37:51;;;;;;;63.23;38.97;;;;;;;;;;5005576;28;20238;-76
2022/03/02 20:40:22;;;;;;;50.93;34.70;;;;;;;;;;5001656;28;20233;-76
2022/03/02 20:42:49;;;;;;;50.60;33.60;;;;;;;;;;5005354;28;20691;-76
2022/03/02 20:45:16;;;;;;;51.80;33.83;;;;;;;;;;5004446;28;20238;-76
2022/03/02 20:47:43;;;;;;;49.83;32.77;;;;;;;;;;4993812;28;20321;-76
2022/03/02 20:50:12;;;;;;;50.60;33.13;;;;;;;;;;4993887;28;20206;-76
2022/03/02 20:52:41;;;;;;;51.93;33.60;;;;;;;;;;5007409;28;20223;-75
2022/03/02 20:55:09;;;;;;;47.90;32.60;;;;;;;;;;5012093;28;20211;-77
2022/03/02 20:57:38;;;;;;;46.83;31.00;;;;;;;;;;5004335;28;20219;-75
2022/03/02 21:00:07;;;;;;;53.93;31.90;;;;;;;;;;4999424;28;20239;-75
2022/03/02 21:02:35;;;;;;;48.27;31.13;;;;;;;;;;4993888;28;20211;-77
2022/03/02 21:05:02;;;;;;;46.07;31.03;;;;;;;;;;4999872;28;20218;-75
2022/03/02 21:07:29;;;;;;;44.73;32.07;;;;;;;;;;5010925;28;20228;-75
2022/03/02 21:09:56;;;;;;;42.73;30.37;;;;;;;;;;4993345;28;20318;-75
2022/03/02 21:12:24;;;;;;;46.13;30.97;;;;;;;;;;4998559;28;20203;-75
2022/03/02 21:14:55;;;;;;;42.57;31.63;;;;;;;;;;4999283;28;20249;-75
2022/03/02 21:17:23;;;;;;;45.73;33.43;;;;;;;;;;4996624;28;20318;-75
2022/03/02 21:19:50;;;;;;;48.50;32.57;;;;;;;;;;4993414;28;20211;-76
2022/03/02 21:22:18;;;;;;;46.27;31.07;;;;;;;;;;4995641;28;20210;-77
2022/03/02 21:24:45;;;;;;;39.87;29.57;;;;;;;;;;4997379;28;20242;-75
2022/03/02 21:27:14;;;;;;;43.93;31.30;;;;;;;;;;4999369;28;20253;-76
2022/03/02 21:29:41;;;;;;;43.00;30.60;;;;;;;;;;5013826;28;20238;-78
2022/03/02 21:32:10;;;;;;;47.27;30.83;;;;;;;;;;5008467;28;20285;-78
2022/03/02 21:34:39;;;;;;;43.87;31.10;;;;;;;;;;5004156;28;20234;-77
2022/03/02 21:37:09;;;;;;;49.23;32.07;;;;;;;;;;5009676;28;20627;-81
2022/03/02 21:39:37;;;;;;;47.30;30.40;;;;;;;;;;5006869;28;20284;-75
2022/03/02 21:42:04;;;;;;;46.27;30.70;;;;;;;;;;5002342;28;20341;-76
2022/03/02 21:44:35;;;;;;;43.40;30.60;;;;;;;;;;5005164;28;20206;-75
2022/03/02 21:47:02;;;;;;;41.37;30.77;;;;;;;;;;5009647;28;20220;-76
2022/03/02 21:49:31;;;;;;;47.40;31.93;;;;;;;;;;5000801;28;20222;-74
2022/03/02 21:51:58;;;;;;;49.33;32.47;;;;;;;;;;5004362;28;20198;-75
2022/03/02 21:54:26;;;;;;;45.47;31.50;;;;;;;;;;5000988;28;20289;-75
2022/03/02 21:56:53;;;;;;;44.07;29.33;;;;;;;;;;5003001;28;20255;-75
2022/03/02 21:59:20;;;;;;;43.40;29.63;;;;;;;;;;4995381;28;20234;-75
2022/03/02 22:01:47;;;;;;;43.17;29.53;;;;;;;;;;4998012;28;20310;-75
2022/03/02 22:04:15;;;;;;;40.53;27.90;;;;;;;;;;5001066;28;20250;-75
2022/03/02 22:06:43;;;;;;;39.13;28.50;;;;;;;;;;5010825;28;20257;-74
2022/03/02 22:09:10;;;;;;;38.27;29.07;;;;;;;;;;5003504;28;20223;-75
2022/03/02 22:11:38;;;;;;;41.77;28.37;;;;;;;;;;4993925;28;20207;-75
2022/03/02 22:14:05;;;;;;;39.07;26.57;;;;;;;;;;4998301;28;20214;-75
2022/03/02 22:16:32;;;;;;;35.70;27.07;;;;;;;;;;5003305;28;20223;-74
2022/03/02 22:18:59;;;;;;;41.97;28.53;;;;;;;;;;4992224;28;20289;-74
2022/03/02 22:21:26;;;;;;;38.77;27.40;;;;;;;;;;4992493;28;20221;-75
2022/03/02 22:23:55;;;;;;;37.50;28.03;;;;;;;;;;4992347;28;20229;-74
2022/03/02 22:26:22;;;;;;;40.83;29.33;;;;;;;;;;4991947;28;20207;-74
2022/03/02 22:28:50;;;;;;;46.83;31.40;;;;;;;;;;4991843;28;20286;-74
2022/03/02 22:31:17;;;;;;;39.93;28.90;;;;;;;;;;4992394;28;20235;-74
2022/03/02 22:33:44;;;;;;;41.47;29.77;;;;;;;;;;4997504;28;20203;-74
2022/03/02 22:36:11;;;;;;;41.10;27.23;;;;;;;;;;5007485;28;20394;-74
2022/03/02 22:38:42;;;;;;;38.43;27.40;;;;;;;;;;4995617;28;20222;-74
2022/03/02 22:41:10;;;;;;;37.27;26.67;;;;;;;;;;4996911;28;20237;-75
2022/03/02 22:43:38;;;;;;;37.87;26.63;;;;;;;;;;4992839;28;20207;-75
2022/03/02 22:46:05;;;;;;;38.77;27.33;;;;;;;;;;4992843;28;20213;-74
2022/03/02 22:48:32;;;;;;;40.67;27.30;;;;;;;;;;4992562;28;20226;-74
2022/03/02 22:50:59;;;;;;;39.43;27.70;;;;;;;;;;4993918;28;20207;-74
2022/03/02 22:53:27;;;;;;;39.97;27.40;;;;;;;;;;5005638;28;20203;-74
2022/03/02 22:55:54;;;;;;;37.67;27.33;;;;;;;;;;5000668;28;20195;-74
2022/03/02 22:58:23;;;;;;;42.53;27.67;;;;;;;;;;4997165;28;20314;-75
2022/03/02 23:01:09;;;;;;;37.70;26.33;;;;;;;;;;4995891;28;20215;-74
2022/03/02 23:03:36;;;;;;;40.40;27.20;;;;;;;;;;4998177;28;20298;-74
2022/03/02 23:14:18;;;;;;;40.80;26.80;;;;;;;;;;4996584;28;20198;-74
2022/03/02 23:17:37;;;;;;;39.30;27.70;;;;;;;;;;5005435;28;20613;-75
2022/03/02 23:19:33;;;;;;;42.90;27.03;;;;;;;;;;5008427;28;20220;-75
2022/03/02 23:22:00;;;;;;;39.37;26.33;;;;;;;;;;5004124;28;20202;-75
2022/03/02 23:24:27;;;;;;;42.90;27.20;;;;;;;;;;5001335;28;20213;-73
2022/03/02 23:27:02;;;;;;;38.23;26.63;;;;;;;;;;5023978;23;20336;-79
2022/03/02 23:29:32;;;;;;;37.57;26.67;;;;;;;;;;5032467;28;20308;-79
2022/03/02 23:32:01;;;;;;;40.23;26.50;;;;;;;;;;5034826;28;20201;-79
2022/03/02 23:34:31;;;;;;;38.13;25.87;;;;;;;;;;5038652;28;20252;-79
2022/03/02 23:36:58;;;;;;;39.03;26.33;;;;;;;;;;5033178;28;20286;-77
2022/03/02 23:39:31;;;;;;;39.17;26.03;;;;;;;;;;5023482;28;20288;-78
2022/03/02 23:41:59;;;;;;;38.20;25.77;;;;;;;;;;5023065;28;20221;-79
2022/03/02 23:44:29;;;;;;;35.10;24.87;;;;;;;;;;5024002;28;20210;-79
2022/03/02 23:46:58;;;;;;;33.60;24.57;;;;;;;;;;5015482;28;20227;-79
2022/03/02 23:49:25;;;;;;;38.33;26.07;;;;;;;;;;5021500;28;20314;-79
2022/03/02 23:51:52;;;;;;;40.33;26.20;;;;;;;;;;5017180;28;20249;-79
2022/03/02 23:54:20;;;;;;;34.40;24.40;;;;;;;;;;5022698;28;20260;-79
2022/03/02 23:56:48;;;;;;;39.07;23.50;;;;;;;;;;5016153;28;20233;-78
2022/03/02 23:59:16;;;;;;;34.80;23.57;;;;;;;;;;5024104;28;20228;-79
